createdAt,value
2024-05-09T00:01:15.873Z,99241.72
2024-05-09T00:06:18.237Z,99233.19
2024-05-09T00:11:21.165Z,99234.41
2024-05-09T00:16:23.813Z,99224.91
2024-05-09T00:21:26.020Z,99229.75
2024-05-09T00:26:28.376Z,99231.16
2024-05-09T00:31:30.807Z,99229.97
2024-05-09T00:36:33.200Z,99229.31
2024-05-09T00:41:35.759Z,99235.78
2024-05-09T00:46:39.142Z,99237.03
2024-05-09T00:51:43.493Z,99230.66
2024-05-09T00:56:46.519Z,99221.06
2024-05-09T01:01:50.074Z,99223.81
2024-05-09T01:06:52.741Z,99216.16
2024-05-09T01:11:55.450Z,99218.09
2024-05-09T01:16:58.068Z,99221.28
2024-05-09T01:22:00.858Z,99222.19
2024-05-09T01:27:03.300Z,99222.75
2024-05-09T01:32:08.200Z,99222.38
2024-05-09T01:37:10.923Z,99222.69
2024-05-09T01:42:13.406Z,99218.97
2024-05-09T01:47:15.758Z,99227.06
2024-05-09T01:52:18.564Z,99229.44
2024-05-09T01:57:20.916Z,99226.88
2024-05-09T02:02:23.221Z,99217.88
2024-05-09T02:07:26.636Z,99225.56
2024-05-09T02:12:28.742Z,99222.88
2024-05-09T02:17:31.229Z,99230.56
2024-05-09T02:22:33.500Z,99231.97
2024-05-09T02:27:35.403Z,99241.16
2024-05-09T02:32:37.642Z,99242.53
2024-05-09T02:37:39.716Z,99236.13
2024-05-09T02:42:41.962Z,99236.41
2024-05-09T02:47:44.495Z,99223.72
2024-05-09T02:52:46.733Z,99223.56
2024-05-09T02:57:48.904Z,99229.59
2024-05-09T03:02:51.164Z,99225.50
2024-05-09T03:07:53.616Z,99233.72
2024-05-09T03:12:56.061Z,99233.47
2024-05-09T03:18:01.611Z,99236.75
2024-05-09T03:23:05.488Z,99227.75
2024-05-09T03:28:08.404Z,99235.69
2024-05-09T03:33:19.362Z,99231.31
2024-05-09T03:38:22.960Z,99232.00
2024-05-09T03:43:26.039Z,99240.59
2024-05-09T03:48:28.558Z,99235.13
2024-05-09T03:53:32.319Z,99233.06
2024-05-09T03:58:37.986Z,99231.16
2024-05-09T04:03:40.490Z,99228.00
2024-05-09T04:08:43.254Z,99232.06
2024-05-09T04:13:45.777Z,99235.34
2024-05-09T04:18:48.602Z,99239.44
2024-05-09T04:23:53.665Z,99240.94
2024-05-09T04:28:56.273Z,99235.59
2024-05-09T04:33:58.931Z,99237.78
2024-05-09T04:39:01.901Z,99246.25
2024-05-09T04:44:04.655Z,99245.81
2024-05-09T04:49:07.793Z,99253.56
2024-05-09T04:54:15.769Z,99252.72
2024-05-09T04:59:26.928Z,99255.41
2024-05-09T05:04:30.264Z,99257.44
2024-05-09T05:09:33.047Z,99258.63
2024-05-09T05:14:35.359Z,99259.56
2024-05-09T05:19:39.244Z,99252.53
2024-05-09T05:24:41.763Z,99258.66
2024-05-09T05:29:44.158Z,99252.28
2024-05-09T05:34:46.780Z,99255.19
2024-05-09T05:40:40.966Z,99253.56
2024-05-09T05:45:43.657Z,99259.72
2024-05-09T05:50:46.095Z,99262.44
2024-05-09T05:55:48.498Z,99263.69
2024-05-09T06:00:50.950Z,99255.47
2024-05-09T06:05:53.234Z,99259.16
2024-05-09T06:17:46.802Z,99264.25
2024-05-09T06:22:49.568Z,99275.72
2024-05-09T06:27:52.385Z,99268.78
2024-05-09T06:32:54.986Z,99265.41
2024-05-09T06:37:58.676Z,99265.28
2024-05-09T06:43:01.164Z,99271.00
2024-05-09T06:48:03.924Z,99277.91
2024-05-09T06:53:07.668Z,99269.59
2024-05-09T06:58:10.557Z,99272.69
2024-05-09T07:03:17.092Z,99269.06
2024-05-09T07:08:21.065Z,99269.03
2024-05-09T07:13:23.617Z,99269.03
2024-05-09T07:18:25.871Z,99263.09
2024-05-09T07:23:28.824Z,99268.06
2024-05-09T07:28:31.080Z,99266.97
2024-05-09T07:33:33.598Z,99272.97
2024-05-09T07:38:36.632Z,99282.16
2024-05-09T07:43:39.142Z,99271.69
2024-05-09T07:53:50.919Z,99255.44
2024-05-09T07:58:56.047Z,99251.19
2024-05-09T08:03:59.315Z,99255.44
2024-05-09T08:09:05.474Z,99254.84
2024-05-09T08:14:10.962Z,99255.03
2024-05-09T08:19:13.361Z,99243.25
2024-05-09T08:24:15.810Z,99253.53
2024-05-09T08:29:18.034Z,99253.09
2024-05-09T08:34:20.524Z,99258.09
2024-05-09T08:39:22.964Z,99263.06
2024-05-09T08:44:27.196Z,99257.75
2024-05-09T08:49:31.185Z,99248.78
2024-05-09T08:54:34.050Z,99243.81
2024-05-09T08:59:45.407Z,99252.25
2024-05-09T09:05:03.816Z,99240.38
2024-05-09T09:10:12.914Z,99233.50
2024-05-09T09:15:17.622Z,99242.66
2024-05-09T09:20:26.348Z,99238.91
2024-05-09T09:25:39.986Z,99236.56
2024-05-09T09:30:43.202Z,99237.88
2024-05-09T09:35:45.909Z,99241.16
2024-05-09T09:40:50.215Z,99241.34
2024-05-09T09:45:55.805Z,99250.88
2024-05-09T09:50:58.686Z,99249.06
2024-05-09T09:56:02.367Z,99257.38
2024-05-09T10:01:30.585Z,99238.22
2024-05-09T10:06:43.221Z,99240.00
2024-05-09T10:11:51.804Z,99230.97
2024-05-09T10:17:05.515Z,99240.09
2024-05-09T10:22:11.423Z,99236.41
2024-05-09T10:33:53.727Z,99240.28
2024-05-09T10:38:56.499Z,99234.03
2024-05-09T10:43:59.051Z,99232.94
2024-05-09T10:49:05.312Z,99226.16
2024-05-09T10:54:09.629Z,99227.00
2024-05-09T10:59:14.610Z,99209.13
2024-05-09T11:04:17.506Z,99205.81
2024-05-09T11:09:20.643Z,99203.06
2024-05-09T11:14:23.134Z,99194.44
2024-05-09T11:19:34.501Z,99190.84
2024-05-09T11:24:37.205Z,99194.56
2024-05-09T11:29:44.728Z,99181.88
2024-05-09T11:34:47.501Z,99188.50
2024-05-09T11:39:50.619Z,99178.13
2024-05-09T11:44:53.137Z,99174.56
2024-05-09T11:49:57.231Z,99181.31
2024-05-09T11:54:59.878Z,99172.66
2024-05-09T12:00:03.198Z,99172.91
2024-05-09T12:05:06.998Z,99166.09
2024-05-09T12:10:16.462Z,99166.41
2024-05-09T12:15:21.893Z,99156.84
2024-05-09T12:20:32.380Z,99157.28
2024-05-09T12:25:40.008Z,99151.78
2024-05-09T12:30:43.004Z,99151.78
2024-05-09T12:35:47.353Z,99149.91
2024-05-09T12:40:51.940Z,99141.78
2024-05-09T12:45:54.404Z,99126.91
2024-05-09T12:50:58.035Z,99128.63
2024-05-09T12:56:02.481Z,99118.63
2024-05-09T13:01:08.789Z,99117.47
2024-05-09T13:06:11.917Z,99101.72
2024-05-09T13:11:14.700Z,99096.06
2024-05-09T13:16:17.009Z,99088.81
2024-05-09T13:21:19.230Z,99086.84
2024-05-09T13:26:21.654Z,99083.03
2024-05-09T13:31:24.269Z,99080.69
2024-05-09T13:36:26.747Z,99070.78
2024-05-09T13:41:28.862Z,99075.22
2024-05-09T13:46:31.183Z,99065.72
2024-05-09T13:51:34.656Z,99073.41
2024-05-09T13:56:38.564Z,99060.88
2024-05-09T14:01:41.024Z,99064.56
2024-05-09T14:06:43.882Z,99055.47
2024-05-09T14:11:46.474Z,99060.94
2024-05-09T14:16:49.188Z,99047.81
2024-05-09T14:21:51.464Z,99049.66
2024-05-09T14:26:53.686Z,99047.88
2024-05-09T14:31:56.157Z,99041.03
2024-05-09T14:36:59.248Z,99027.28
2024-05-09T14:42:01.473Z,99028.94
2024-05-09T14:47:03.950Z,99019.22
2024-05-09T14:52:06.369Z,99022.47
2024-05-09T14:57:09.125Z,99007.47
2024-05-09T15:03:02.942Z,98998.56
2024-05-09T15:08:08.134Z,98992.50
2024-05-09T15:13:12.299Z,98992.28
2024-05-09T15:18:16.492Z,98994.69
2024-05-09T15:23:19.129Z,98989.63
2024-05-09T15:28:21.969Z,98981.34
2024-05-09T15:33:24.806Z,98986.41
2024-05-09T15:38:27.933Z,98975.88
2024-05-09T15:43:58.358Z,98975.88
2024-05-09T16:09:51.415Z,98971.16
2024-05-09T16:14:53.722Z,98962.06
2024-05-09T16:19:57.289Z,98956.38
2024-05-09T16:24:59.688Z,98960.22
2024-05-09T16:30:07.192Z,98959.59
2024-05-09T16:35:14.598Z,98949.28
2024-05-09T16:53:52.287Z,98951.00
2024-05-09T17:05:50.853Z,98944.91
2024-05-09T17:10:55.802Z,98943.66
2024-05-09T17:15:58.441Z,98945.69
2024-05-09T17:21:01.177Z,98944.44
2024-05-09T17:26:03.547Z,98945.84
2024-05-09T17:31:07.780Z,98950.25
2024-05-09T17:36:10.475Z,98945.78
2024-05-09T17:41:12.585Z,98939.25
2024-05-09T17:46:15.109Z,98944.66
2024-05-09T17:51:17.661Z,98947.63
2024-05-09T17:56:19.980Z,98946.16
2024-05-09T18:01:24.164Z,98944.31
2024-05-09T18:06:26.748Z,98942.78
2024-05-09T18:11:29.180Z,98939.88
2024-05-09T18:16:31.287Z,98954.31
2024-05-09T18:21:33.743Z,98951.41
2024-05-09T18:26:36.753Z,98943.22
2024-05-09T18:31:40.383Z,98950.97
2024-05-09T18:36:43.061Z,98944.59
2024-05-09T18:41:45.254Z,98950.31
2024-05-09T18:46:47.304Z,98954.88
2024-05-09T18:51:49.408Z,98961.03
2024-05-09T18:56:51.593Z,98963.72
2024-05-09T19:01:53.809Z,98969.88
2024-05-09T19:06:56.336Z,98976.66
2024-05-09T19:12:03.331Z,98969.72
2024-05-09T19:17:05.540Z,98980.47
2024-05-09T19:22:08.206Z,98984.00
2024-05-09T19:27:10.578Z,98979.84
2024-05-09T19:32:12.693Z,98975.31
2024-05-09T19:37:14.996Z,98982.09
2024-05-09T19:42:18.147Z,98978.38
2024-05-09T19:47:20.688Z,98983.97
2024-05-09T19:52:22.917Z,98981.88
2024-05-09T19:57:27.541Z,98987.84
2024-05-09T20:02:29.898Z,98995.41
2024-05-09T20:07:34.393Z,98997.72
2024-05-09T20:12:38.023Z,98988.78
2024-05-09T20:17:40.192Z,98998.81
2024-05-09T20:22:45.319Z,99001.75
2024-05-09T20:27:47.540Z,99002.94
2024-05-09T20:32:49.742Z,99005.91
2024-05-09T20:37:52.022Z,99006.41
2024-05-09T20:42:54.259Z,98997.13
2024-05-09T20:47:57.976Z,99001.88
2024-05-09T20:53:00.359Z,99000.63
2024-05-09T20:58:02.566Z,98997.53
2024-05-09T21:03:05.120Z,99001.50
2024-05-09T21:08:08.076Z,99002.00
2024-05-09T21:13:10.319Z,99005.97
2024-05-09T21:18:12.702Z,99012.53
2024-05-09T21:23:14.966Z,99002.75
2024-05-09T21:28:17.321Z,99004.09
2024-05-09T21:33:19.618Z,99002.16
2024-05-09T21:38:22.218Z,98997.28
2024-05-09T21:43:26.938Z,99002.84
2024-05-09T21:48:29.092Z,99009.41
2024-05-09T21:53:31.928Z,99002.91
2024-05-09T21:58:34.560Z,99011.41
2024-05-09T22:03:37.150Z,99000.03
2024-05-09T22:08:39.796Z,98995.81
2024-05-09T22:13:41.864Z,98996.50
2024-05-09T22:18:47.139Z,99003.22
2024-05-09T22:23:49.641Z,98998.50
2024-05-09T22:28:51.920Z,99006.66
2024-05-09T22:33:54.333Z,99007.97
2024-05-09T22:38:57.072Z,99003.88
2024-05-09T22:43:59.927Z,98994.59
2024-05-09T22:49:02.649Z,99007.00
2024-05-09T22:54:05.875Z,98996.91
2024-05-09T22:59:08.191Z,98992.81
2024-05-09T23:04:10.408Z,98990.88
2024-05-09T23:09:13.239Z,98987.81
2024-05-09T23:14:15.483Z,98994.97
2024-05-09T23:19:17.690Z,98988.47
2024-05-09T23:24:19.964Z,98978.38
2024-05-09T23:29:22.213Z,98979.69
2024-05-09T23:34:24.553Z,98981.97
2024-05-09T23:39:27.358Z,98979.88
2024-05-09T23:44:29.513Z,98980.19
2024-05-09T23:49:31.898Z,98971.25
2024-05-09T23:54:34.340Z,98978.41
2024-05-09T23:59:36.459Z,98973.03
